sensor_id;sensor_type;location;lat;lon;timestamp;temperature;humidity
75927;DHT22;64605;48.296;16.416;2023-05-10T00:00:52;13.00;55.80
75927;DHT22;64605;48.296;16.416;2023-05-10T00:03:18;13.00;55.80
75927;DHT22;64605;48.296;16.416;2023-05-10T00:05:44;13.00;55.90
75927;DHT22;64605;48.296;16.416;2023-05-10T00:08:09;13.00;56.20
75927;DHT22;64605;48.296;16.416;2023-05-10T00:10:35;13.00;56.00
75927;DHT22;64605;48.296;16.416;2023-05-10T00:13:02;13.00;56.10
75927;DHT22;64605;48.296;16.416;2023-05-10T00:15:28;13.00;56.40
75927;DHT22;64605;48.296;16.416;2023-05-10T00:17:56;13.00;56.10
75927;DHT22;64605;48.296;16.416;2023-05-10T00:20:22;12.90;56.40
75927;DHT22;64605;48.296;16.416;2023-05-10T00:22:47;12.90;56.60
75927;DHT22;64605;48.296;16.416;2023-05-10T00:25:13;12.90;56.90
75927;DHT22;64605;48.296;16.416;2023-05-10T00:27:39;12.80;57.10
75927;DHT22;64605;48.296;16.416;2023-05-10T00:30:05;12.80;57.20
75927;DHT22;64605;48.296;16.416;2023-05-10T00:32:31;12.80;57.70
75927;DHT22;64605;48.296;16.416;2023-05-10T00:34:57;12.80;57.70
75927;DHT22;64605;48.296;16.416;2023-05-10T00:37:23;12.80;58.00
75927;DHT22;64605;48.296;16.416;2023-05-10T00:39:48;12.80;58.00
75927;DHT22;64605;48.296;16.416;2023-05-10T00:42:14;12.80;58.00
75927;DHT22;64605;48.296;16.416;2023-05-10T00:44:39;12.80;58.00
75927;DHT22;64605;48.296;16.416;2023-05-10T00:47:05;12.70;58.00
75927;DHT22;64605;48.296;16.416;2023-05-10T00:49:31;12.80;58.30
75927;DHT22;64605;48.296;16.416;2023-05-10T00:51:57;12.70;58.30
75927;DHT22;64605;48.296;16.416;2023-05-10T00:54:22;12.70;58.30
75927;DHT22;64605;48.296;16.416;2023-05-10T00:56:48;12.70;58.30
75927;DHT22;64605;48.296;16.416;2023-05-10T00:59:17;12.70;58.20
75927;DHT22;64605;48.296;16.416;2023-05-10T01:01:44;12.70;58.40
75927;DHT22;64605;48.296;16.416;2023-05-10T01:04:11;12.60;58.70
75927;DHT22;64605;48.296;16.416;2023-05-10T01:06:39;12.60;58.80
75927;DHT22;64605;48.296;16.416;2023-05-10T01:09:05;12.50;59.30
75927;DHT22;64605;48.296;16.416;2023-05-10T01:11:36;12.50;59.20
75927;DHT22;64605;48.296;16.416;2023-05-10T01:14:03;12.50;59.20
75927;DHT22;64605;48.296;16.416;2023-05-10T01:16:38;12.40;59.00
75927;DHT22;64605;48.296;16.416;2023-05-10T01:19:12;12.40;59.00
75927;DHT22;64605;48.296;16.416;2023-05-10T01:27:42;12.20;60.20
75927;DHT22;64605;48.296;16.416;2023-05-10T01:33:44;12.00;61.00
75927;DHT22;64605;48.296;16.416;2023-05-10T01:36:41;12.00;61.50
75927;DHT22;64605;48.296;16.416;2023-05-10T01:39:16;11.90;61.60
75927;DHT22;64605;48.296;16.416;2023-05-10T01:41:52;11.90;61.80
75927;DHT22;64605;48.296;16.416;2023-05-10T01:47:09;11.90;62.20
75927;DHT22;64605;48.296;16.416;2023-05-10T01:50:01;11.80;62.30
75927;DHT22;64605;48.296;16.416;2023-05-10T01:52:28;11.80;62.30
75927;DHT22;64605;48.296;16.416;2023-05-10T01:55:02;11.70;62.80
75927;DHT22;64605;48.296;16.416;2023-05-10T01:57:32;11.70;62.90
75927;DHT22;64605;48.296;16.416;2023-05-10T01:59:59;11.60;63.90
75927;DHT22;64605;48.296;16.416;2023-05-10T02:02:27;11.60;63.50
75927;DHT22;64605;48.296;16.416;2023-05-10T02:04:54;11.50;64.10
75927;DHT22;64605;48.296;16.416;2023-05-10T02:07:21;11.50;64.80
75927;DHT22;64605;48.296;16.416;2023-05-10T02:09:48;11.40;64.40
75927;DHT22;64605;48.296;16.416;2023-05-10T02:12:16;11.40;64.20
75927;DHT22;64605;48.296;16.416;2023-05-10T02:14:43;11.40;64.90
75927;DHT22;64605;48.296;16.416;2023-05-10T02:17:09;11.40;64.90
75927;DHT22;64605;48.296;16.416;2023-05-10T02:19:38;11.40;65.00
75927;DHT22;64605;48.296;16.416;2023-05-10T02:22:05;11.40;65.20
75927;DHT22;64605;48.296;16.416;2023-05-10T02:24:32;11.40;65.50
75927;DHT22;64605;48.296;16.416;2023-05-10T02:26:58;11.40;65.80
75927;DHT22;64605;48.296;16.416;2023-05-10T02:29:26;11.40;66.10
75927;DHT22;64605;48.296;16.416;2023-05-10T02:31:54;11.40;66.30
75927;DHT22;64605;48.296;16.416;2023-05-10T02:34:22;11.40;66.10
75927;DHT22;64605;48.296;16.416;2023-05-10T02:36:48;11.40;66.00
75927;DHT22;64605;48.296;16.416;2023-05-10T02:39:15;11.40;66.30
75927;DHT22;64605;48.296;16.416;2023-05-10T02:41:43;11.40;67.40
75927;DHT22;64605;48.296;16.416;2023-05-10T02:44:11;11.40;66.40
75927;DHT22;64605;48.296;16.416;2023-05-10T02:46:38;11.40;66.40
75927;DHT22;64605;48.296;16.416;2023-05-10T02:49:04;11.40;66.70
75927;DHT22;64605;48.296;16.416;2023-05-10T02:51:32;11.40;66.70
75927;DHT22;64605;48.296;16.416;2023-05-10T02:54:10;11.40;66.80
75927;DHT22;64605;48.296;16.416;2023-05-10T02:56:42;11.40;66.70
75927;DHT22;64605;48.296;16.416;2023-05-10T02:59:12;11.30;66.90
75927;DHT22;64605;48.296;16.416;2023-05-10T03:01:38;11.30;67.00
75927;DHT22;64605;48.296;16.416;2023-05-10T03:04:04;11.40;66.80
75927;DHT22;64605;48.296;16.416;2023-05-10T03:06:29;11.30;66.80
75927;DHT22;64605;48.296;16.416;2023-05-10T03:08:55;11.30;66.60
75927;DHT22;64605;48.296;16.416;2023-05-10T03:16:56;11.20;67.10
75927;DHT22;64605;48.296;16.416;2023-05-10T03:19:27;11.20;66.90
75927;DHT22;64605;48.296;16.416;2023-05-10T03:21:59;11.10;67.10
75927;DHT22;64605;48.296;16.416;2023-05-10T03:24:27;11.10;67.60
75927;DHT22;64605;48.296;16.416;2023-05-10T03:26:56;11.10;67.60
75927;DHT22;64605;48.296;16.416;2023-05-10T03:29:23;11.00;67.40
75927;DHT22;64605;48.296;16.416;2023-05-10T03:31:51;11.10;67.20
75927;DHT22;64605;48.296;16.416;2023-05-10T03:34:16;11.00;67.40
75927;DHT22;64605;48.296;16.416;2023-05-10T03:36:48;11.00;67.70
75927;DHT22;64605;48.296;16.416;2023-05-10T03:39:13;11.00;68.00
75927;DHT22;64605;48.296;16.416;2023-05-10T03:41:39;10.90;67.90
75927;DHT22;64605;48.296;16.416;2023-05-10T03:44:05;10.90;68.10
75927;DHT22;64605;48.296;16.416;2023-05-10T03:46:30;10.90;67.90
75927;DHT22;64605;48.296;16.416;2023-05-10T03:48:56;11.00;68.40
75927;DHT22;64605;48.296;16.416;2023-05-10T03:51:22;11.00;68.40
75927;DHT22;64605;48.296;16.416;2023-05-10T03:53:47;10.90;68.30
75927;DHT22;64605;48.296;16.416;2023-05-10T03:56:13;11.00;68.80
75927;DHT22;64605;48.296;16.416;2023-05-10T03:58:39;10.90;68.70
75927;DHT22;64605;48.296;16.416;2023-05-10T04:01:04;10.90;69.10
75927;DHT22;64605;48.296;16.416;2023-05-10T04:03:30;10.90;69.00
75927;DHT22;64605;48.296;16.416;2023-05-10T04:06:02;11.00;68.70
75927;DHT22;64605;48.296;16.416;2023-05-10T04:08:28;11.10;68.60
75927;DHT22;64605;48.296;16.416;2023-05-10T04:10:54;11.00;68.60
75927;DHT22;64605;48.296;16.416;2023-05-10T04:13:20;11.10;68.70
75927;DHT22;64605;48.296;16.416;2023-05-10T04:15:46;11.10;69.10
75927;DHT22;64605;48.296;16.416;2023-05-10T04:18:11;11.10;68.90
75927;DHT22;64605;48.296;16.416;2023-05-10T04:20:37;11.20;69.40
75927;DHT22;64605;48.296;16.416;2023-05-10T04:23:02;11.20;69.40
75927;DHT22;64605;48.296;16.416;2023-05-10T04:25:28;11.30;69.20
75927;DHT22;64605;48.296;16.416;2023-05-10T04:27:53;11.30;69.10
75927;DHT22;64605;48.296;16.416;2023-05-10T04:30:19;11.30;69.30
75927;DHT22;64605;48.296;16.416;2023-05-10T04:32:45;11.30;69.40
75927;DHT22;64605;48.296;16.416;2023-05-10T04:35:10;11.30;69.10
75927;DHT22;64605;48.296;16.416;2023-05-10T04:37:36;11.40;69.20
75927;DHT22;64605;48.296;16.416;2023-05-10T04:40:02;11.50;69.10
75927;DHT22;64605;48.296;16.416;2023-05-10T04:42:28;11.60;68.70
75927;DHT22;64605;48.296;16.416;2023-05-10T04:44:54;11.70;68.50
75927;DHT22;64605;48.296;16.416;2023-05-10T04:47:20;11.80;68.20
75927;DHT22;64605;48.296;16.416;2023-05-10T04:49:45;11.80;67.90
75927;DHT22;64605;48.296;16.416;2023-05-10T04:52:11;11.90;67.70
75927;DHT22;64605;48.296;16.416;2023-05-10T04:54:37;12.00;67.40
75927;DHT22;64605;48.296;16.416;2023-05-10T04:57:03;12.10;67.10
75927;DHT22;64605;48.296;16.416;2023-05-10T04:59:28;12.20;66.80
75927;DHT22;64605;48.296;16.416;2023-05-10T05:01:54;12.20;66.30
75927;DHT22;64605;48.296;16.416;2023-05-10T05:04:20;12.30;66.00
75927;DHT22;64605;48.296;16.416;2023-05-10T05:06:46;12.40;65.70
75927;DHT22;64605;48.296;16.416;2023-05-10T05:09:11;12.50;65.20
75927;DHT22;64605;48.296;16.416;2023-05-10T05:11:37;12.60;64.90
75927;DHT22;64605;48.296;16.416;2023-05-10T05:14:03;12.70;64.70
75927;DHT22;64605;48.296;16.416;2023-05-10T05:16:30;12.90;64.00
75927;DHT22;64605;48.296;16.416;2023-05-10T05:18:56;13.00;63.10
75927;DHT22;64605;48.296;16.416;2023-05-10T05:21:21;13.20;62.80
75927;DHT22;64605;48.296;16.416;2023-05-10T05:23:47;13.30;62.50
75927;DHT22;64605;48.296;16.416;2023-05-10T05:26:13;13.50;62.00
75927;DHT22;64605;48.296;16.416;2023-05-10T05:28:40;13.60;61.00
75927;DHT22;64605;48.296;16.416;2023-05-10T05:31:06;13.80;60.40
75927;DHT22;64605;48.296;16.416;2023-05-10T05:33:33;14.00;59.60
75927;DHT22;64605;48.296;16.416;2023-05-10T05:36:02;14.10;58.80
75927;DHT22;64605;48.296;16.416;2023-05-10T05:38:28;14.30;58.00
75927;DHT22;64605;48.296;16.416;2023-05-10T05:40:54;14.40;57.20
75927;DHT22;64605;48.296;16.416;2023-05-10T05:43:20;14.70;57.50
75927;DHT22;64605;48.296;16.416;2023-05-10T05:45:47;14.80;57.50
75927;DHT22;64605;48.296;16.416;2023-05-10T05:48:12;15.00;56.30
75927;DHT22;64605;48.296;16.416;2023-05-10T05:50:38;15.10;55.80
75927;DHT22;64605;48.296;16.416;2023-05-10T05:53:04;15.30;56.50
75927;DHT22;64605;48.296;16.416;2023-05-10T05:55:29;15.50;54.90
75927;DHT22;64605;48.296;16.416;2023-05-10T05:57:57;15.60;54.20
75927;DHT22;64605;48.296;16.416;2023-05-10T06:00:22;15.70;53.40
75927;DHT22;64605;48.296;16.416;2023-05-10T06:02:48;15.90;53.70
75927;DHT22;64605;48.296;16.416;2023-05-10T06:05:14;16.00;52.70
75927;DHT22;64605;48.296;16.416;2023-05-10T06:07:40;16.10;52.90
75927;DHT22;64605;48.296;16.416;2023-05-10T06:10:08;16.10;52.20
75927;DHT22;64605;48.296;16.416;2023-05-10T06:12:34;16.30;51.90
75927;DHT22;64605;48.296;16.416;2023-05-10T06:15:00;16.40;51.30
75927;DHT22;64605;48.296;16.416;2023-05-10T06:17:25;16.60;51.40
75927;DHT22;64605;48.296;16.416;2023-05-10T06:19:51;16.80;50.70
75927;DHT22;64605;48.296;16.416;2023-05-10T06:22:17;17.10;51.10
75927;DHT22;64605;48.296;16.416;2023-05-10T06:24:43;17.50;49.50
75927;DHT22;64605;48.296;16.416;2023-05-10T06:27:08;18.00;47.60
75927;DHT22;64605;48.296;16.416;2023-05-10T06:29:34;18.70;46.70
75927;DHT22;64605;48.296;16.416;2023-05-10T06:32:00;19.30;45.60
75927;DHT22;64605;48.296;16.416;2023-05-10T06:34:25;19.80;43.00
75927;DHT22;64605;48.296;16.416;2023-05-10T06:36:51;20.60;41.90
75927;DHT22;64605;48.296;16.416;2023-05-10T06:39:17;21.50;40.50
75927;DHT22;64605;48.296;16.416;2023-05-10T06:41:43;22.60;38.90
75927;DHT22;64605;48.296;16.416;2023-05-10T06:44:08;23.90;37.30
75927;DHT22;64605;48.296;16.416;2023-05-10T06:46:34;24.50;34.30
75927;DHT22;64605;48.296;16.416;2023-05-10T06:49:00;25.10;31.50
75927;DHT22;64605;48.296;16.416;2023-05-10T06:51:26;25.30;31.30
75927;DHT22;64605;48.296;16.416;2023-05-10T06:53:51;25.70;30.60
75927;DHT22;64605;48.296;16.416;2023-05-10T06:56:17;26.10;30.20
75927;DHT22;64605;48.296;16.416;2023-05-10T06:58:43;27.20;29.60
75927;DHT22;64605;48.296;16.416;2023-05-10T07:01:08;27.80;28.00
75927;DHT22;64605;48.296;16.416;2023-05-10T07:03:34;28.50;26.80
75927;DHT22;64605;48.296;16.416;2023-05-10T07:06:03;29.20;25.80
75927;DHT22;64605;48.296;16.416;2023-05-10T07:08:32;29.50;25.50
75927;DHT22;64605;48.296;16.416;2023-05-10T07:11:02;29.90;24.90
75927;DHT22;64605;48.296;16.416;2023-05-10T07:13:30;30.20;24.90
75927;DHT22;64605;48.296;16.416;2023-05-10T07:15:55;30.80;23.90
75927;DHT22;64605;48.296;16.416;2023-05-10T07:18:21;30.90;23.90
75927;DHT22;64605;48.296;16.416;2023-05-10T07:20:47;31.20;23.70
75927;DHT22;64605;48.296;16.416;2023-05-10T07:23:12;31.00;23.60
75927;DHT22;64605;48.296;16.416;2023-05-10T07:25:38;31.00;24.00
75927;DHT22;64605;48.296;16.416;2023-05-10T07:28:04;31.10;24.00
75927;DHT22;64605;48.296;16.416;2023-05-10T07:30:29;31.70;23.00
75927;DHT22;64605;48.296;16.416;2023-05-10T07:32:56;32.40;22.90
75927;DHT22;64605;48.296;16.416;2023-05-10T07:35:21;32.40;21.90
75927;DHT22;64605;48.296;16.416;2023-05-10T07:37:47;31.80;22.00
75927;DHT22;64605;48.296;16.416;2023-05-10T07:40:12;31.60;22.80
75927;DHT22;64605;48.296;16.416;2023-05-10T07:42:38;30.60;23.10
75927;DHT22;64605;48.296;16.416;2023-05-10T07:45:04;30.70;23.30
75927;DHT22;64605;48.296;16.416;2023-05-10T07:47:30;31.10;22.70
75927;DHT22;64605;48.296;16.416;2023-05-10T07:49:55;30.70;23.30
75927;DHT22;64605;48.296;16.416;2023-05-10T07:52:21;30.20;23.70
75927;DHT22;64605;48.296;16.416;2023-05-10T07:54:47;30.60;23.10
75927;DHT22;64605;48.296;16.416;2023-05-10T07:57:13;31.70;22.60
75927;DHT22;64605;48.296;16.416;2023-05-10T07:59:40;32.80;21.50
75927;DHT22;64605;48.296;16.416;2023-05-10T08:02:06;33.30;21.30
75927;DHT22;64605;48.296;16.416;2023-05-10T08:04:32;33.50;21.30
75927;DHT22;64605;48.296;16.416;2023-05-10T08:06:57;34.10;20.40
75927;DHT22;64605;48.296;16.416;2023-05-10T08:09:23;34.20;20.90
75927;DHT22;64605;48.296;16.416;2023-05-10T08:11:49;34.40;19.70
75927;DHT22;64605;48.296;16.416;2023-05-10T08:14:16;34.60;20.10
75927;DHT22;64605;48.296;16.416;2023-05-10T08:16:42;35.30;20.20
75927;DHT22;64605;48.296;16.416;2023-05-10T08:19:07;36.20;18.90
75927;DHT22;64605;48.296;16.416;2023-05-10T08:21:33;35.90;18.90
75927;DHT22;64605;48.296;16.416;2023-05-10T08:23:59;35.70;18.20
75927;DHT22;64605;48.296;16.416;2023-05-10T08:26:24;35.20;18.60
75927;DHT22;64605;48.296;16.416;2023-05-10T08:28:50;34.90;18.90
75927;DHT22;64605;48.296;16.416;2023-05-10T08:31:16;34.70;19.20
75927;DHT22;64605;48.296;16.416;2023-05-10T08:33:41;35.00;19.00
75927;DHT22;64605;48.296;16.416;2023-05-10T08:36:07;34.60;18.90
75927;DHT22;64605;48.296;16.416;2023-05-10T08:38:33;34.40;18.90
75927;DHT22;64605;48.296;16.416;2023-05-10T08:40:59;34.30;19.30
75927;DHT22;64605;48.296;16.416;2023-05-10T08:43:29;34.50;19.30
75927;DHT22;64605;48.296;16.416;2023-05-10T08:45:55;34.90;19.70
75927;DHT22;64605;48.296;16.416;2023-05-10T08:48:24;35.90;19.20
75927;DHT22;64605;48.296;16.416;2023-05-10T08:50:52;36.70;18.50
75927;DHT22;64605;48.296;16.416;2023-05-10T08:53:20;36.70;17.60
75927;DHT22;64605;48.296;16.416;2023-05-10T08:55:47;36.20;17.70
75927;DHT22;64605;48.296;16.416;2023-05-10T08:58:13;35.80;17.80
75927;DHT22;64605;48.296;16.416;2023-05-10T09:00:40;35.10;17.80
75927;DHT22;64605;48.296;16.416;2023-05-10T09:03:05;34.50;18.70
75927;DHT22;64605;48.296;16.416;2023-05-10T09:05:32;34.60;19.10
75927;DHT22;64605;48.296;16.416;2023-05-10T09:07:58;36.20;19.40
75927;DHT22;64605;48.296;16.416;2023-05-10T09:10:26;37.00;17.50
75927;DHT22;64605;48.296;16.416;2023-05-10T09:12:53;35.20;17.60
75927;DHT22;64605;48.296;16.416;2023-05-10T09:15:21;33.30;19.00
75927;DHT22;64605;48.296;16.416;2023-05-10T09:17:47;31.30;20.70
75927;DHT22;64605;48.296;16.416;2023-05-10T09:20:14;31.70;21.50
75927;DHT22;64605;48.296;16.416;2023-05-10T09:22:40;32.80;20.70
75927;DHT22;64605;48.296;16.416;2023-05-10T09:25:10;32.60;20.30
75927;DHT22;64605;48.296;16.416;2023-05-10T09:27:40;31.80;21.00
75927;DHT22;64605;48.296;16.416;2023-05-10T09:30:07;30.60;21.80
75927;DHT22;64605;48.296;16.416;2023-05-10T09:32:44;29.70;22.80
75927;DHT22;64605;48.296;16.416;2023-05-10T09:35:15;28.70;23.50
75927;DHT22;64605;48.296;16.416;2023-05-10T09:37:43;27.30;24.60
75927;DHT22;64605;48.296;16.416;2023-05-10T09:40:14;26.40;25.40
75927;DHT22;64605;48.296;16.416;2023-05-10T09:42:42;25.60;26.70
75927;DHT22;64605;48.296;16.416;2023-05-10T09:45:08;25.10;27.60
75927;DHT22;64605;48.296;16.416;2023-05-10T09:47:35;24.90;28.10
75927;DHT22;64605;48.296;16.416;2023-05-10T09:50:02;25.00;28.20
75927;DHT22;64605;48.296;16.416;2023-05-10T09:52:58;24.80;28.10
75927;DHT22;64605;48.296;16.416;2023-05-10T09:55:45;24.70;29.30
75927;DHT22;64605;48.296;16.416;2023-05-10T09:58:12;25.50;28.70
75927;DHT22;64605;48.296;16.416;2023-05-10T10:00:42;27.50;27.10
75927;DHT22;64605;48.296;16.416;2023-05-10T10:03:18;28.50;25.10
75927;DHT22;64605;48.296;16.416;2023-05-10T10:05:44;28.50;24.80
75927;DHT22;64605;48.296;16.416;2023-05-10T10:08:11;28.10;24.90
75927;DHT22;64605;48.296;16.416;2023-05-10T10:10:37;28.20;24.80
75927;DHT22;64605;48.296;16.416;2023-05-10T10:13:05;27.60;25.00
75927;DHT22;64605;48.296;16.416;2023-05-10T10:15:33;27.30;25.60
75927;DHT22;64605;48.296;16.416;2023-05-10T10:17:59;28.00;26.10
75927;DHT22;64605;48.296;16.416;2023-05-10T10:20:26;29.20;24.10
75927;DHT22;64605;48.296;16.416;2023-05-10T10:22:52;30.30;24.10
75927;DHT22;64605;48.296;16.416;2023-05-10T10:25:19;30.60;22.40
75927;DHT22;64605;48.296;16.416;2023-05-10T10:35:52;28.80;24.00
75927;DHT22;64605;48.296;16.416;2023-05-10T10:38:18;29.60;23.50
75927;DHT22;64605;48.296;16.416;2023-05-10T10:40:44;29.80;23.40
75927;DHT22;64605;48.296;16.416;2023-05-10T10:43:26;30.00;23.20
75927;DHT22;64605;48.296;16.416;2023-05-10T10:46:24;29.90;22.70
75927;DHT22;64605;48.296;16.416;2023-05-10T10:49:09;28.50;24.00
75927;DHT22;64605;48.296;16.416;2023-05-10T10:51:38;28.10;24.10
75927;DHT22;64605;48.296;16.416;2023-05-10T10:54:11;27.60;24.80
75927;DHT22;64605;48.296;16.416;2023-05-10T10:56:37;27.50;25.30
75927;DHT22;64605;48.296;16.416;2023-05-10T10:59:02;27.30;25.70
75927;DHT22;64605;48.296;16.416;2023-05-10T11:01:33;26.90;26.10
75927;DHT22;64605;48.296;16.416;2023-05-10T11:06:31;27.10;25.70
75927;DHT22;64605;48.296;16.416;2023-05-10T11:08:58;26.50;26.90
75927;DHT22;64605;48.296;16.416;2023-05-10T11:11:23;26.10;27.30
75927;DHT22;64605;48.296;16.416;2023-05-10T11:13:49;26.20;27.00
75927;DHT22;64605;48.296;16.416;2023-05-10T11:16:23;26.00;26.80
75927;DHT22;64605;48.296;16.416;2023-05-10T11:19:15;25.60;27.80
75927;DHT22;64605;48.296;16.416;2023-05-10T11:21:49;25.40;27.40
75927;DHT22;64605;48.296;16.416;2023-05-10T11:24:18;25.40;27.40
75927;DHT22;64605;48.296;16.416;2023-05-10T11:26:44;25.20;27.90
75927;DHT22;64605;48.296;16.416;2023-05-10T11:29:12;24.80;28.60
75927;DHT22;64605;48.296;16.416;2023-05-10T11:31:45;24.70;28.10
75927;DHT22;64605;48.296;16.416;2023-05-10T11:34:13;24.40;28.70
75927;DHT22;64605;48.296;16.416;2023-05-10T11:36:51;24.10;29.00
75927;DHT22;64605;48.296;16.416;2023-05-10T11:39:19;23.80;29.40
75927;DHT22;64605;48.296;16.416;2023-05-10T11:41:48;23.70;29.60
75927;DHT22;64605;48.296;16.416;2023-05-10T11:44:14;23.70;29.80
75927;DHT22;64605;48.296;16.416;2023-05-10T11:46:40;23.60;30.00
75927;DHT22;64605;48.296;16.416;2023-05-10T11:49:07;23.50;30.00
75927;DHT22;64605;48.296;16.416;2023-05-10T11:51:36;23.60;30.80
75927;DHT22;64605;48.296;16.416;2023-05-10T11:54:09;23.70;30.30
75927;DHT22;64605;48.296;16.416;2023-05-10T11:56:35;23.70;29.70
75927;DHT22;64605;48.296;16.416;2023-05-10T11:59:01;23.80;29.80
75927;DHT22;64605;48.296;16.416;2023-05-10T12:01:28;23.90;29.30
75927;DHT22;64605;48.296;16.416;2023-05-10T12:03:55;23.70;29.60
75927;DHT22;64605;48.296;16.416;2023-05-10T12:06:27;23.80;29.50
75927;DHT22;64605;48.296;16.416;2023-05-10T12:08:54;23.80;30.40
75927;DHT22;64605;48.296;16.416;2023-05-10T12:11:23;23.70;30.20
75927;DHT22;64605;48.296;16.416;2023-05-10T12:13:50;23.60;30.20
75927;DHT22;64605;48.296;16.416;2023-05-10T12:16:18;23.60;30.30
75927;DHT22;64605;48.296;16.416;2023-05-10T12:18:45;23.60;30.40
75927;DHT22;64605;48.296;16.416;2023-05-10T12:21:14;23.30;30.00
75927;DHT22;64605;48.296;16.416;2023-05-10T12:23:41;23.00;30.50
75927;DHT22;64605;48.296;16.416;2023-05-10T12:26:09;22.60;31.00
75927;DHT22;64605;48.296;16.416;2023-05-10T12:28:36;22.50;31.70
75927;DHT22;64605;48.296;16.416;2023-05-10T12:31:02;22.10;32.20
75927;DHT22;64605;48.296;16.416;2023-05-10T12:33:35;22.00;32.50
75927;DHT22;64605;48.296;16.416;2023-05-10T12:36:02;21.90;32.40
75927;DHT22;64605;48.296;16.416;2023-05-10T12:38:43;22.00;34.20
75927;DHT22;64605;48.296;16.416;2023-05-10T12:41:11;22.20;34.30
75927;DHT22;64605;48.296;16.416;2023-05-10T12:43:37;22.30;31.50
75927;DHT22;64605;48.296;16.416;2023-05-10T12:46:12;22.30;31.50
75927;DHT22;64605;48.296;16.416;2023-05-10T12:48:39;22.30;30.90
75927;DHT22;64605;48.296;16.416;2023-05-10T12:51:06;22.30;31.50
75927;DHT22;64605;48.296;16.416;2023-05-10T12:53:35;22.40;32.20
75927;DHT22;64605;48.296;16.416;2023-05-10T12:56:00;22.50;32.00
75927;DHT22;64605;48.296;16.416;2023-05-10T12:58:26;22.60;31.90
75927;DHT22;64605;48.296;16.416;2023-05-10T13:00:52;22.60;31.40
75927;DHT22;64605;48.296;16.416;2023-05-10T13:03:18;22.80;31.80
75927;DHT22;64605;48.296;16.416;2023-05-10T13:05:43;23.10;32.20
75927;DHT22;64605;48.296;16.416;2023-05-10T13:08:09;23.40;31.70
75927;DHT22;64605;48.296;16.416;2023-05-10T13:10:35;23.50;30.30
75927;DHT22;64605;48.296;16.416;2023-05-10T13:13:00;23.40;29.60
75927;DHT22;64605;48.296;16.416;2023-05-10T13:15:26;23.40;30.10
75927;DHT22;64605;48.296;16.416;2023-05-10T13:17:53;23.30;30.60
75927;DHT22;64605;48.296;16.416;2023-05-10T13:20:19;23.10;30.70
75927;DHT22;64605;48.296;16.416;2023-05-10T13:22:44;23.10;31.10
75927;DHT22;64605;48.296;16.416;2023-05-10T13:25:10;22.90;30.30
75927;DHT22;64605;48.296;16.416;2023-05-10T13:27:37;22.70;30.90
75927;DHT22;64605;48.296;16.416;2023-05-10T13:30:03;22.50;31.40
75927;DHT22;64605;48.296;16.416;2023-05-10T13:32:30;22.30;31.70
75927;DHT22;64605;48.296;16.416;2023-05-10T13:34:56;22.30;31.60
75927;DHT22;64605;48.296;16.416;2023-05-10T13:37:22;22.10;31.80
75927;DHT22;64605;48.296;16.416;2023-05-10T13:39:48;22.10;32.10
75927;DHT22;64605;48.296;16.416;2023-05-10T13:42:13;22.00;32.30
75927;DHT22;64605;48.296;16.416;2023-05-10T13:44:39;22.10;32.30
75927;DHT22;64605;48.296;16.416;2023-05-10T13:47:05;22.30;32.40
75927;DHT22;64605;48.296;16.416;2023-05-10T13:49:32;22.60;31.70
75927;DHT22;64605;48.296;16.416;2023-05-10T13:51:57;22.80;30.80
75927;DHT22;64605;48.296;16.416;2023-05-10T13:54:23;22.80;30.80
75927;DHT22;64605;48.296;16.416;2023-05-10T13:56:49;22.70;30.00
75927;DHT22;64605;48.296;16.416;2023-05-10T13:59:15;22.60;30.30
75927;DHT22;64605;48.296;16.416;2023-05-10T14:01:41;22.50;29.80
75927;DHT22;64605;48.296;16.416;2023-05-10T14:04:08;22.40;29.90
75927;DHT22;64605;48.296;16.416;2023-05-10T14:06:36;22.40;30.20
75927;DHT22;64605;48.296;16.416;2023-05-10T14:09:04;22.40;28.30
75927;DHT22;64605;48.296;16.416;2023-05-10T14:11:30;22.30;28.60
75927;DHT22;64605;48.296;16.416;2023-05-10T14:13:56;22.30;29.20
75927;DHT22;64605;48.296;16.416;2023-05-10T14:16:22;22.50;29.50
75927;DHT22;64605;48.296;16.416;2023-05-10T14:18:48;22.70;29.70
75927;DHT22;64605;48.296;16.416;2023-05-10T14:21:13;22.60;28.80
75927;DHT22;64605;48.296;16.416;2023-05-10T14:23:39;22.30;29.50
75927;DHT22;64605;48.296;16.416;2023-05-10T14:26:05;22.30;29.70
75927;DHT22;64605;48.296;16.416;2023-05-10T14:28:31;22.40;30.00
75927;DHT22;64605;48.296;16.416;2023-05-10T14:30:57;22.30;29.90
75927;DHT22;64605;48.296;16.416;2023-05-10T14:33:23;22.30;30.60
75927;DHT22;64605;48.296;16.416;2023-05-10T14:35:48;22.20;30.00
75927;DHT22;64605;48.296;16.416;2023-05-10T14:38:14;22.00;30.20
75927;DHT22;64605;48.296;16.416;2023-05-10T14:40:40;21.90;30.30
75927;DHT22;64605;48.296;16.416;2023-05-10T14:43:06;21.70;30.90
75927;DHT22;64605;48.296;16.416;2023-05-10T14:45:31;21.50;30.90
75927;DHT22;64605;48.296;16.416;2023-05-10T14:47:57;21.40;31.80
75927;DHT22;64605;48.296;16.416;2023-05-10T14:50:23;21.40;32.50
75927;DHT22;64605;48.296;16.416;2023-05-10T14:52:49;21.50;32.50
75927;DHT22;64605;48.296;16.416;2023-05-10T14:55:15;21.60;32.80
75927;DHT22;64605;48.296;16.416;2023-05-10T14:57:41;21.50;32.40
75927;DHT22;64605;48.296;16.416;2023-05-10T15:00:07;21.60;32.00
75927;DHT22;64605;48.296;16.416;2023-05-10T15:02:33;21.60;31.10
75927;DHT22;64605;48.296;16.416;2023-05-10T15:04:59;21.70;31.40
75927;DHT22;64605;48.296;16.416;2023-05-10T15:07:24;21.70;31.40
75927;DHT22;64605;48.296;16.416;2023-05-10T15:09:51;21.70;31.80
75927;DHT22;64605;48.296;16.416;2023-05-10T15:12:17;21.70;32.10
75927;DHT22;64605;48.296;16.416;2023-05-10T15:14:43;21.70;32.10
75927;DHT22;64605;48.296;16.416;2023-05-10T15:17:09;21.70;32.20
75927;DHT22;64605;48.296;16.416;2023-05-10T15:19:35;21.90;32.10
75927;DHT22;64605;48.296;16.416;2023-05-10T15:22:02;21.90;31.70
75927;DHT22;64605;48.296;16.416;2023-05-10T15:24:28;22.10;31.60
75927;DHT22;64605;48.296;16.416;2023-05-10T15:26:53;22.10;31.20
75927;DHT22;64605;48.296;16.416;2023-05-10T15:29:19;22.00;31.70
75927;DHT22;64605;48.296;16.416;2023-05-10T15:31:49;21.90;31.40
75927;DHT22;64605;48.296;16.416;2023-05-10T15:34:16;21.70;31.70
75927;DHT22;64605;48.296;16.416;2023-05-10T15:36:42;21.70;31.90
75927;DHT22;64605;48.296;16.416;2023-05-10T15:39:08;21.60;32.20
75927;DHT22;64605;48.296;16.416;2023-05-10T15:41:35;21.70;32.70
75927;DHT22;64605;48.296;16.416;2023-05-10T15:44:01;21.80;32.10